createdAt,value
2023-05-15T00:01:51.383Z,100775.17
2023-05-15T00:04:19.814Z,100768.05
2023-05-15T00:06:48.438Z,100767.45
2023-05-15T00:09:16.544Z,100761.05
2023-05-15T00:11:44.898Z,100753.65
2023-05-15T00:14:13.821Z,100749.76
2023-05-15T00:16:42.081Z,100743.73
2023-05-15T00:19:10.582Z,100735.58
2023-05-15T00:21:39.001Z,100734.64
2023-05-15T00:24:07.225Z,100731.40
2023-05-15T00:26:36.836Z,100731.48
2023-05-15T00:29:03.977Z,100733.90
2023-05-15T00:31:33.601Z,100741.92
2023-05-15T00:34:00.824Z,100743.05
2023-05-15T00:36:29.260Z,100736.59
2023-05-15T00:38:57.768Z,100739.50
2023-05-15T00:41:28.856Z,100736.08
2023-05-15T00:43:58.111Z,100736.15
2023-05-15T00:46:30.823Z,100731.33
2023-05-15T00:49:03.213Z,100724.73
2023-05-15T00:51:33.339Z,100723.02
2023-05-15T00:54:04.121Z,100718.75
2023-05-15T00:56:35.596Z,100721.13
2023-05-15T00:59:07.686Z,100718.32
2023-05-15T01:01:37.790Z,100715.37
2023-05-15T01:04:07.701Z,100714.95
2023-05-15T01:06:38.060Z,100711.98
2023-05-15T01:09:10.060Z,100705.13
2023-05-15T01:11:42.542Z,100701.70
2023-05-15T01:14:12.351Z,100706.17
2023-05-15T01:16:42.114Z,100698.08
2023-05-15T01:19:12.456Z,100708.86
2023-05-15T01:21:57.048Z,100700.40
2023-05-15T01:25:43.339Z,100699.26
2023-05-15T01:28:22.360Z,100692.23
2023-05-15T01:30:56.497Z,100690.60
2023-05-15T01:33:33.276Z,100691.75
2023-05-15T01:36:24.782Z,100692.85
2023-05-15T01:39:01.048Z,100695.36
2023-05-15T01:41:54.648Z,100696.52
2023-05-15T01:44:54.751Z,100693.10
2023-05-15T01:47:40.649Z,100693.27
2023-05-15T01:50:14.732Z,100687.23
2023-05-15T01:53:00.866Z,100684.53
2023-05-15T01:55:31.438Z,100678.86
2023-05-15T01:58:02.885Z,100678.66
2023-05-15T02:00:34.227Z,100678.91
2023-05-15T02:03:02.217Z,100671.91
2023-05-15T02:05:31.158Z,100669.02
2023-05-15T02:08:04.833Z,100665.13
2023-05-15T02:10:36.564Z,100664.70
2023-05-15T02:13:09.432Z,100661.38
2023-05-15T02:15:39.769Z,100662.20
2023-05-15T02:18:09.556Z,100655.84
2023-05-15T02:20:39.457Z,100653.13
2023-05-15T02:23:09.276Z,100650.65
2023-05-15T02:26:01.246Z,100652.77
2023-05-15T02:28:55.188Z,100647.33
2023-05-15T02:31:51.900Z,100650.64
2023-05-15T02:35:13.922Z,100647.83
2023-05-15T02:37:49.732Z,100646.30
2023-05-15T02:40:24.561Z,100646.45
2023-05-15T02:42:57.003Z,100643.70
2023-05-15T02:45:28.035Z,100640.63
2023-05-15T02:48:00.240Z,100640.61
2023-05-15T02:50:31.000Z,100634.75
2023-05-15T02:53:09.907Z,100633.61
2023-05-15T02:55:39.892Z,100629.56
2023-05-15T02:58:10.278Z,100632.30
2023-05-15T03:00:40.503Z,100631.98
2023-05-15T03:03:10.331Z,100634.99
2023-05-15T03:05:40.516Z,100630.21
2023-05-15T03:08:10.446Z,100625.95
2023-05-15T03:10:40.628Z,100621.16
2023-05-15T03:13:10.950Z,100618.77
2023-05-15T03:15:40.871Z,100617.00
2023-05-15T03:18:11.034Z,100617.90
2023-05-15T03:20:40.996Z,100613.63
2023-05-15T03:23:11.038Z,100613.45
2023-05-15T03:25:40.956Z,100611.36
2023-05-15T03:28:11.651Z,100607.19
2023-05-15T03:30:45.126Z,100603.76
2023-05-15T03:33:15.084Z,100601.50
2023-05-15T03:35:45.251Z,100595.65
2023-05-15T03:38:15.524Z,100600.07
2023-05-15T03:40:45.592Z,100599.42
2023-05-15T03:43:16.067Z,100603.20
2023-05-15T03:45:45.932Z,100600.61
2023-05-15T03:48:15.893Z,100596.75
2023-05-15T03:50:47.295Z,100597.23
2023-05-15T03:53:16.822Z,100597.15
2023-05-15T03:55:46.898Z,100593.56
2023-05-15T03:58:16.757Z,100593.58
2023-05-15T04:00:47.021Z,100594.30
2023-05-15T04:03:15.386Z,100590.35
2023-05-15T04:05:44.118Z,100593.41
2023-05-15T04:08:12.629Z,100589.75
2023-05-15T04:10:40.758Z,100586.89
2023-05-15T04:13:09.188Z,100581.30
2023-05-15T04:15:38.900Z,100577.02
2023-05-15T04:18:06.461Z,100576.70
2023-05-15T04:20:35.128Z,100577.73
2023-05-15T04:23:05.847Z,100584.05
2023-05-15T04:25:33.032Z,100590.98
2023-05-15T04:28:01.802Z,100588.07
2023-05-15T04:30:29.719Z,100581.14
2023-05-15T04:32:58.717Z,100575.05
2023-05-15T04:35:27.429Z,100575.23
2023-05-15T04:37:55.916Z,100580.44
2023-05-15T04:40:24.199Z,100579.71
2023-05-15T04:42:52.726Z,100580.11
2023-05-15T04:45:21.431Z,100579.98
2023-05-15T04:47:49.907Z,100582.79
2023-05-15T04:50:17.978Z,100581.13
2023-05-15T04:52:46.869Z,100577.33
2023-05-15T04:55:15.529Z,100571.56
2023-05-15T04:57:43.761Z,100575.09
2023-05-15T05:00:14.204Z,100581.40
2023-05-15T05:02:44.184Z,100574.64
2023-05-15T05:05:14.572Z,100572.34
2023-05-15T05:07:46.325Z,100568.34
2023-05-15T05:10:16.335Z,100568.33
2023-05-15T05:12:46.289Z,100565.52
2023-05-15T05:15:16.250Z,100562.36
2023-05-15T05:17:46.590Z,100559.30
2023-05-15T05:20:16.709Z,100555.55
2023-05-15T05:22:46.826Z,100550.94
2023-05-15T05:25:15.027Z,100552.46
2023-05-15T05:27:43.411Z,100549.27
2023-05-15T05:30:12.878Z,100545.06
2023-05-15T05:32:40.303Z,100545.81
2023-05-15T05:35:09.482Z,100545.98
2023-05-15T05:37:39.592Z,100549.21
2023-05-15T05:40:10.783Z,100545.63
2023-05-15T05:42:37.945Z,100543.42
2023-05-15T05:45:07.581Z,100540.20
2023-05-15T05:47:35.002Z,100531.14
2023-05-15T05:50:03.797Z,100530.58
2023-05-15T05:52:31.878Z,100528.98
2023-05-15T05:55:00.256Z,100525.24
2023-05-15T05:57:29.087Z,100519.03
2023-05-15T05:59:57.403Z,100514.15
2023-05-15T06:02:26.531Z,100512.75
2023-05-15T06:04:54.763Z,100511.86
2023-05-15T06:07:23.584Z,100512.55
2023-05-15T06:09:51.973Z,100512.91
2023-05-15T06:12:22.239Z,100513.44
2023-05-15T06:14:52.728Z,100509.92
2023-05-15T06:17:22.834Z,100505.86
2023-05-15T06:19:52.748Z,100500.91
2023-05-15T06:22:23.498Z,100500.23
2023-05-15T06:24:53.243Z,100494.55
2023-05-15T06:27:26.524Z,100490.12
2023-05-15T06:29:56.399Z,100487.77
2023-05-15T06:32:25.032Z,100492.16
2023-05-15T06:34:53.212Z,100495.52
2023-05-15T06:37:21.850Z,100491.10
2023-05-15T06:39:50.501Z,100493.38
2023-05-15T06:42:18.617Z,100488.92
2023-05-15T06:44:47.745Z,100485.45
2023-05-15T06:47:16.048Z,100481.34
2023-05-15T06:49:43.887Z,100472.60
2023-05-15T06:52:12.304Z,100476.97
2023-05-15T06:54:41.721Z,100470.93
2023-05-15T06:57:09.461Z,100469.10
2023-05-15T06:59:37.856Z,100463.89
2023-05-15T07:02:06.083Z,100465.64
2023-05-15T07:04:34.404Z,100462.42
2023-05-15T07:07:02.973Z,100460.41
2023-05-15T07:09:31.267Z,100464.91
2023-05-15T07:11:59.560Z,100467.78
2023-05-15T07:14:28.383Z,100467.54
2023-05-15T07:16:56.695Z,100465.58
2023-05-15T07:19:25.030Z,100464.36
2023-05-15T07:21:53.454Z,100460.55
2023-05-15T07:24:21.808Z,100458.58
2023-05-15T07:26:58.318Z,100452.41
2023-05-15T07:29:28.961Z,100450.14
2023-05-15T07:31:58.910Z,100445.80
2023-05-15T07:34:28.822Z,100437.52
2023-05-15T07:36:58.884Z,100433.00
2023-05-15T07:39:28.765Z,100431.48
2023-05-15T07:41:58.610Z,100429.83
2023-05-15T07:44:28.477Z,100427.56
2023-05-15T07:46:59.460Z,100424.39
2023-05-15T07:49:29.752Z,100427.27
2023-05-15T07:51:59.562Z,100425.30
2023-05-15T07:54:31.836Z,100421.85
2023-05-15T07:57:02.486Z,100419.39
2023-05-15T07:59:32.450Z,100417.58
2023-05-15T08:02:03.108Z,100412.80
2023-05-15T08:04:33.493Z,100409.17
2023-05-15T08:07:03.846Z,100407.61
2023-05-15T08:09:34.419Z,100402.87
2023-05-15T08:12:22.227Z,100402.77
2023-05-15T08:14:54.522Z,100397.77
2023-05-15T08:17:25.853Z,100397.41
2023-05-15T08:19:56.377Z,100393.80
2023-05-15T08:22:26.477Z,100392.96
2023-05-15T08:24:56.474Z,100391.73
2023-05-15T08:27:27.133Z,100389.09
2023-05-15T08:29:56.929Z,100387.91
2023-05-15T08:32:27.526Z,100383.40
2023-05-15T08:34:58.186Z,100383.13
2023-05-15T08:37:28.818Z,100378.79
2023-05-15T08:39:58.668Z,100374.99
2023-05-15T08:42:48.143Z,100371.58
2023-05-15T08:45:20.023Z,100368.94
2023-05-15T08:47:49.570Z,100360.26
2023-05-15T08:50:19.083Z,100353.35
2023-05-15T08:52:47.891Z,100354.39
2023-05-15T08:55:16.326Z,100353.05
2023-05-15T08:57:45.175Z,100355.02
2023-05-15T09:00:15.818Z,100347.69
2023-05-15T09:02:43.999Z,100347.15
2023-05-15T09:05:12.723Z,100343.10
2023-05-15T09:07:44.945Z,100342.37
2023-05-15T09:10:16.293Z,100342.75
2023-05-15T09:12:46.298Z,100342.40
2023-05-15T09:15:22.213Z,100341.27
2023-05-15T09:17:53.045Z,100338.23
2023-05-15T09:20:29.862Z,100335.26
2023-05-15T09:23:03.750Z,100335.42
2023-05-15T09:25:44.516Z,100333.25
2023-05-15T09:28:33.387Z,100332.23
2023-05-15T09:31:05.752Z,100335.02
2023-05-15T09:33:38.800Z,100335.05
2023-05-15T09:36:09.058Z,100331.07
2023-05-15T09:38:43.937Z,100333.30
2023-05-15T09:41:11.842Z,100329.56
2023-05-15T09:43:41.723Z,100328.39
2023-05-15T09:46:14.665Z,100328.67
2023-05-15T09:48:45.141Z,100327.99
2023-05-15T09:51:20.726Z,100326.45
2023-05-15T09:53:54.300Z,100327.11
2023-05-15T09:56:25.067Z,100329.21
2023-05-15T09:58:56.115Z,100332.23
2023-05-15T10:01:27.524Z,100329.63
2023-05-15T10:04:01.790Z,100325.98
2023-05-15T10:06:40.646Z,100324.73
2023-05-15T10:09:11.585Z,100325.27
2023-05-15T10:11:43.432Z,100320.46
2023-05-15T10:14:15.639Z,100314.75
2023-05-15T10:16:45.315Z,100312.95
2023-05-15T10:19:14.922Z,100307.53
2023-05-15T10:21:45.700Z,100307.73
2023-05-15T10:24:19.111Z,100311.77
2023-05-15T10:26:49.122Z,100311.56
2023-05-15T10:29:21.229Z,100306.61
2023-05-15T10:31:51.972Z,100299.48
2023-05-15T10:34:21.104Z,100295.84
2023-05-15T10:36:51.849Z,100291.77
2023-05-15T10:39:22.299Z,100292.77
2023-05-15T10:41:53.904Z,100287.60
2023-05-15T10:44:23.675Z,100281.16
2023-05-15T10:46:55.305Z,100275.83
2023-05-15T10:49:25.932Z,100271.98
2023-05-15T10:51:56.179Z,100268.19
2023-05-15T10:54:23.669Z,100264.38
2023-05-15T10:56:56.316Z,100266.02
2023-05-15T10:59:32.492Z,100261.16
2023-05-15T11:02:23.397Z,100260.04
2023-05-15T11:05:03.657Z,100259.54
2023-05-15T11:07:31.935Z,100256.74
2023-05-15T11:10:00.469Z,100253.14
2023-05-15T11:12:57.652Z,100255.16
2023-05-15T11:15:40.913Z,100255.23
2023-05-15T11:18:11.644Z,100251.87
2023-05-15T11:21:02.689Z,100247.44
2023-05-15T11:23:41.695Z,100237.41
2023-05-15T11:26:13.847Z,100235.58
2023-05-15T11:28:45.003Z,100233.08
2023-05-15T11:31:15.628Z,100228.13
2023-05-15T11:33:52.413Z,100227.34
2023-05-15T11:36:24.863Z,100228.52
2023-05-15T11:38:54.002Z,100224.65
2023-05-15T11:41:22.256Z,100221.95
2023-05-15T11:43:50.850Z,100219.23
2023-05-15T11:46:18.336Z,100218.30
2023-05-15T11:48:50.534Z,100212.62
2023-05-15T11:51:25.057Z,100209.37
2023-05-15T11:53:58.187Z,100209.20
2023-05-15T11:56:28.664Z,100207.95
2023-05-15T11:59:02.312Z,100203.70
2023-05-15T12:01:44.134Z,100205.12
2023-05-15T12:04:16.335Z,100200.73
2023-05-15T12:06:49.553Z,100198.66
2023-05-15T12:09:21.736Z,100194.95
2023-05-15T12:11:56.011Z,100193.38
2023-05-15T12:14:30.515Z,100191.67
2023-05-15T12:17:04.699Z,100188.30
2023-05-15T12:19:38.095Z,100191.46
2023-05-15T12:22:08.450Z,100187.17
2023-05-15T12:24:39.799Z,100181.08
2023-05-15T12:27:09.876Z,100177.21
2023-05-15T12:29:41.062Z,100175.33
2023-05-15T12:32:11.438Z,100171.60
2023-05-15T12:34:41.973Z,100172.26
2023-05-15T12:37:15.097Z,100173.64
2023-05-15T12:39:53.506Z,100172.69
2023-05-15T12:42:24.055Z,100166.23
2023-05-15T12:44:56.551Z,100167.73
2023-05-15T12:47:28.268Z,100164.70
2023-05-15T12:49:58.609Z,100164.95
2023-05-15T12:52:29.474Z,100164.25
2023-05-15T12:55:02.136Z,100161.10
2023-05-15T12:57:31.062Z,100160.34
2023-05-15T13:00:01.079Z,100160.79
2023-05-15T13:02:31.284Z,100154.04
2023-05-15T13:05:04.028Z,100152.52
2023-05-15T13:07:34.026Z,100151.36
2023-05-15T13:10:08.533Z,100148.00
2023-05-15T13:12:43.652Z,100150.73
2023-05-15T13:15:30.975Z,100149.59
2023-05-15T13:18:03.396Z,100147.27
2023-05-15T13:20:36.029Z,100141.40
2023-05-15T13:23:04.310Z,100135.59
2023-05-15T13:25:32.458Z,100131.36
2023-05-15T13:28:06.112Z,100128.83
2023-05-15T13:30:35.980Z,100130.10
2023-05-15T13:33:04.720Z,100119.48
2023-05-15T13:35:33.420Z,100114.77
2023-05-15T13:38:02.423Z,100114.34
2023-05-15T13:40:37.842Z,100114.95
2023-05-15T13:43:07.799Z,100108.98
2023-05-15T13:45:37.621Z,100110.78
2023-05-15T13:48:07.633Z,100104.71
2023-05-15T13:50:37.445Z,100108.58
2023-05-15T13:55:47.116Z,100109.62
2023-05-15T13:58:17.429Z,100115.42
2023-05-15T14:00:48.941Z,100139.50
2023-05-15T14:03:18.904Z,100148.44
2023-05-15T14:05:48.770Z,100163.55
2023-05-15T14:08:18.838Z,100167.42
2023-05-15T14:10:48.556Z,100175.98
2023-05-15T14:13:18.974Z,100182.44
2023-05-15T14:15:48.747Z,100192.06
2023-05-15T14:18:18.495Z,100202.23
2023-05-15T14:20:48.310Z,100208.56
2023-05-15T14:23:19.519Z,100213.95
2023-05-15T14:25:49.335Z,100221.75
2023-05-15T14:28:19.265Z,100229.27
2023-05-15T14:30:49.067Z,100228.66
2023-05-15T14:33:18.953Z,100226.69
2023-05-15T14:35:48.809Z,100227.98
2023-05-15T14:38:19.027Z,100225.21
2023-05-15T14:40:49.260Z,100229.40
2023-05-15T14:43:19.114Z,100227.85
2023-05-15T14:45:49.005Z,100223.26
2023-05-15T14:48:20.228Z,100218.55
2023-05-15T14:50:51.179Z,100216.82
2023-05-15T14:53:21.179Z,100215.33
2023-05-15T14:55:51.054Z,100216.80
2023-05-15T14:58:21.148Z,100215.00
2023-05-15T15:00:49.569Z,100208.01
2023-05-15T15:03:19.181Z,100209.05
2023-05-15T15:05:46.657Z,100205.77
2023-05-15T15:08:15.139Z,100200.13
2023-05-15T15:10:43.778Z,100205.27
2023-05-15T15:13:14.109Z,100199.52
2023-05-15T15:15:44.080Z,100199.09
2023-05-15T15:18:13.951Z,100207.35
2023-05-15T15:20:44.419Z,100208.00
2023-05-15T15:23:14.432Z,100206.36
2023-05-15T15:25:44.164Z,100204.36
2023-05-15T15:28:13.062Z,100200.84
2023-05-15T15:30:42.877Z,100201.80
2023-05-15T15:33:12.950Z,100201.73
2023-05-15T15:35:42.647Z,100199.21
2023-05-15T15:38:13.268Z,100200.90
2023-05-15T15:40:40.942Z,100200.33
2023-05-15T15:43:09.944Z,100200.23
2023-05-15T15:45:38.025Z,100195.58
2023-05-15T15:48:06.581Z,100195.96
2023-05-15T15:50:36.495Z,100187.54
2023-05-15T15:53:06.302Z,100193.01
2023-05-15T15:55:36.258Z,100185.58
2023-05-15T15:58:06.303Z,100190.17
2023-05-15T16:00:37.597Z,100190.92
2023-05-15T16:03:07.682Z,100193.80
2023-05-15T16:05:38.019Z,100197.58
2023-05-15T16:08:07.910Z,100193.38
2023-05-15T16:10:37.686Z,100194.96
2023-05-15T16:13:07.599Z,100191.45
2023-05-15T16:15:37.380Z,100192.71
2023-05-15T16:18:07.729Z,100189.56
2023-05-15T16:20:38.200Z,100189.95
2023-05-15T16:23:09.473Z,100190.48
2023-05-15T16:25:39.201Z,100191.17
2023-05-15T16:28:09.987Z,100196.04
2023-05-15T16:30:48.850Z,100206.30
2023-05-15T16:33:19.706Z,100212.45
2023-05-15T16:35:48.417Z,100216.70
2023-05-15T16:38:17.998Z,100219.44
2023-05-15T16:40:46.271Z,100218.91
2023-05-15T16:43:14.455Z,100218.03
2023-05-15T16:45:42.926Z,100219.48
2023-05-15T16:48:12.105Z,100222.02
2023-05-15T16:50:41.392Z,100226.13
2023-05-15T16:53:10.842Z,100229.61
2023-05-15T16:55:38.698Z,100231.78
2023-05-15T16:58:08.586Z,100228.38
2023-05-15T17:00:36.364Z,100228.33
2023-05-15T17:03:07.006Z,100226.88
2023-05-15T17:05:34.860Z,100230.39
2023-05-15T17:08:02.867Z,100231.89
2023-05-15T17:10:32.526Z,100235.30
2023-05-15T17:13:00.858Z,100233.28
2023-05-15T17:15:30.652Z,100232.41
2023-05-15T17:17:58.691Z,100230.58
2023-05-15T17:20:28.962Z,100227.50
2023-05-15T17:22:58.781Z,100229.65
2023-05-15T17:25:28.557Z,100235.52
2023-05-15T17:27:58.361Z,100237.34
2023-05-15T17:30:28.257Z,100235.35
2023-05-15T17:32:59.350Z,100228.98
2023-05-15T17:35:32.064Z,100233.48
2023-05-15T17:38:02.853Z,100238.75
2023-05-15T17:40:32.967Z,100243.20
2023-05-15T17:43:03.872Z,100250.86
2023-05-15T17:45:33.893Z,100251.42
2023-05-15T17:48:04.998Z,100251.30
2023-05-15T17:50:38.098Z,100255.48
2023-05-15T17:53:07.960Z,100252.83
2023-05-15T17:55:37.933Z,100249.94
2023-05-15T17:58:07.815Z,100253.69
2023-05-15T18:00:37.626Z,100253.79
2023-05-15T18:03:08.104Z,100255.39
2023-05-15T18:05:38.099Z,100253.55
2023-05-15T18:08:08.006Z,100251.15
2023-05-15T18:10:38.261Z,100251.27
2023-05-15T18:13:08.110Z,100253.60
2023-05-15T18:15:38.275Z,100266.69
2023-05-15T18:18:08.229Z,100265.30
2023-05-15T18:20:38.127Z,100268.13
2023-05-15T18:23:08.076Z,100262.52
2023-05-15T18:25:37.944Z,100259.74
2023-05-15T18:28:07.853Z,100261.63
2023-05-15T18:30:37.697Z,100270.30
2023-05-15T18:33:07.724Z,100271.34
2023-05-15T18:35:38.108Z,100275.41
2023-05-15T18:38:08.020Z,100275.42
2023-05-15T18:40:37.909Z,100277.58
2023-05-15T18:43:08.014Z,100276.20
2023-05-15T18:45:38.112Z,100279.78
2023-05-15T18:48:08.029Z,100284.09
2023-05-15T18:50:39.665Z,100284.84
2023-05-15T18:53:09.549Z,100282.83
2023-05-15T18:55:39.435Z,100280.02
2023-05-15T18:58:09.213Z,100287.98
2023-05-15T19:00:39.499Z,100291.75
2023-05-15T19:03:09.817Z,100293.02
2023-05-15T19:05:39.794Z,100298.03
2023-05-15T19:08:09.594Z,100298.96
2023-05-15T19:10:39.826Z,100300.27
2023-05-15T19:13:09.672Z,100300.98
2023-05-15T19:15:39.431Z,100304.58
2023-05-15T19:18:09.245Z,100306.04
2023-05-15T19:20:39.435Z,100309.90
2023-05-15T19:23:09.888Z,100306.56
2023-05-15T19:25:39.843Z,100300.92
2023-05-15T19:28:08.623Z,100303.04
2023-05-15T19:30:37.004Z,100297.94
2023-05-15T19:33:05.129Z,100296.55
2023-05-15T19:35:35.979Z,100296.92
2023-05-15T19:38:05.587Z,100296.39
2023-05-15T19:40:35.960Z,100291.67
2023-05-15T19:43:05.940Z,100303.33
2023-05-15T19:45:35.772Z,100315.16
2023-05-15T19:48:06.196Z,100312.36
2023-05-15T19:50:39.826Z,100315.33
2023-05-15T19:53:11.964Z,100320.98
2023-05-15T19:55:42.315Z,100320.98
2023-05-15T19:58:12.120Z,100324.18
2023-05-15T20:00:42.440Z,100324.02
2023-05-15T20:03:12.472Z,100330.38
2023-05-15T20:05:42.447Z,100330.38
2023-05-15T20:08:14.097Z,100333.38
2023-05-15T20:10:44.633Z,100331.96
2023-05-15T20:13:14.441Z,100336.73
2023-05-15T20:15:44.614Z,100333.93
2023-05-15T20:18:17.410Z,100335.34
2023-05-15T20:20:47.452Z,100335.86
2023-05-15T20:23:17.257Z,100336.55
2023-05-15T20:25:49.055Z,100339.93
2023-05-15T20:28:18.972Z,100338.33
2023-05-15T20:30:48.733Z,100342.60
2023-05-15T20:33:19.340Z,100344.38
2023-05-15T20:35:51.481Z,100345.46
2023-05-15T20:38:25.458Z,100350.05
2023-05-15T20:40:56.641Z,100348.30
2023-05-15T20:43:26.663Z,100346.19
2023-05-15T20:45:57.004Z,100342.86
2023-05-15T20:48:26.844Z,100347.11
2023-05-15T20:50:56.749Z,100351.35
2023-05-15T20:53:28.812Z,100346.59
2023-05-15T20:55:59.957Z,100343.42
2023-05-15T20:58:29.904Z,100346.42
2023-05-15T21:01:01.151Z,100343.97
2023-05-15T21:03:31.503Z,100343.26
2023-05-15T21:06:02.273Z,100342.90
2023-05-15T21:08:32.118Z,100341.14
2023-05-15T21:11:02.008Z,100344.50
2023-05-15T21:13:30.461Z,100340.79
2023-05-15T21:16:00.255Z,100337.96
2023-05-15T21:18:30.134Z,100339.39
2023-05-15T21:20:58.526Z,100340.09
2023-05-15T21:23:27.116Z,100343.27
2023-05-15T21:25:55.554Z,100345.91
2023-05-15T21:28:23.840Z,100355.43
2023-05-15T21:30:52.653Z,100358.25
2023-05-15T21:33:20.974Z,100360.37
2023-05-15T21:35:49.474Z,100354.91
2023-05-15T21:38:19.349Z,100355.09
2023-05-15T21:40:49.155Z,100352.77
2023-05-15T21:43:17.905Z,100357.70
2023-05-15T21:45:46.085Z,100359.66
2023-05-15T21:48:15.247Z,100363.36
2023-05-15T21:50:42.808Z,100364.77
2023-05-15T21:53:12.675Z,100373.05
2023-05-15T21:55:42.747Z,100371.30
2023-05-15T21:58:09.904Z,100380.46
2023-05-15T22:00:40.360Z,100375.17
2023-05-15T22:03:10.389Z,100379.23
2023-05-15T22:05:40.390Z,100375.87
2023-05-15T22:08:08.871Z,100376.38
2023-05-15T22:10:37.436Z,100376.92
2023-05-15T22:13:06.110Z,100381.33
2023-05-15T22:15:35.120Z,100377.96
2023-05-15T22:18:05.455Z,100374.27
2023-05-15T22:20:34.862Z,100372.66
2023-05-15T22:23:02.949Z,100372.83
2023-05-15T22:25:32.944Z,100370.02
2023-05-15T22:28:03.358Z,100368.27
2023-05-15T22:30:33.338Z,100372.67
2023-05-15T22:33:03.457Z,100368.61
2023-05-15T22:35:33.581Z,100370.00
2023-05-15T22:38:04.557Z,100374.59
2023-05-15T22:40:34.439Z,100374.60
2023-05-15T22:43:05.121Z,100376.89
2023-05-15T22:45:34.618Z,100378.48
2023-05-15T22:48:05.122Z,100382.71
2023-05-15T22:50:36.155Z,100385.90
2023-05-15T22:53:06.057Z,100389.78
2023-05-15T22:55:36.084Z,100397.38
2023-05-15T22:58:05.980Z,100397.89
2023-05-15T23:00:35.905Z,100399.86
2023-05-15T23:03:05.994Z,100401.27
2023-05-15T23:05:36.204Z,100402.51
2023-05-15T23:08:06.140Z,100400.92
2023-05-15T23:10:36.032Z,100399.52
2023-05-15T23:13:06.176Z,100401.09
2023-05-15T23:15:36.191Z,100400.92
2023-05-15T23:18:06.679Z,100402.14
2023-05-15T23:20:36.507Z,100403.92
2023-05-15T23:23:06.992Z,100402.16
2023-05-15T23:25:37.026Z,100401.08
2023-05-15T23:28:07.022Z,100399.50
2023-05-15T23:30:35.494Z,100399.69
2023-05-15T23:33:03.929Z,100403.39
2023-05-15T23:35:33.211Z,100405.84
2023-05-15T23:38:00.713Z,100408.30
2023-05-15T23:40:29.700Z,100416.06
2023-05-15T23:42:58.205Z,100415.52
2023-05-15T23:45:26.534Z,100422.91
2023-05-15T23:47:54.697Z,100423.08
2023-05-15T23:50:23.197Z,100429.75
2023-05-15T23:52:51.731Z,100426.89
2023-05-15T23:55:20.070Z,100427.55
2023-05-15T23:57:48.476Z,100430.89
